Startpagina
METAR-TAF:

METAR-TAF

Vliegvelden :

Fort-de-France, Martinique

breedte: 14-36N, lengte: 061-00W, hoogte: 5 m

Actueel weer

Dit bericht is 29 minuten geleden gemaakt, om 15:00 UTC
Wind 16 kt uit het oosten
Temperatuur 31°C
Vochtigheid 63%
Druk 1014 hPa
Zicht 10 km of meer
Weinig wolken op 1000 ft
Verspreide wolken op 3700 ft

METAR: TFFF 211500Z AUTO 10016KT 9999 FEW010 SCT037 31/23 Q1014 NOSIG

Tijdstip: 11:29 (15:29 UTC)

Verwachting

Dit bericht is 4 uur en het 29 minuten geleden gemaakt, om 11:00 UTC
Verwachting geldig van 21 om 12 UTC tot 22 om 12 UTC
Wind 12 kt uit het oosten
Zicht 10 km of meer
Verspreide wolken op 3500 ft
Wijzigt naar
van 22 om 00 UTC tot 22 om 02 UTC
Wind 2 kt uit variabele richting

TAF: TFFF 211100Z 2112/2212 10012KT 9999 SCT035 BECMG 2200/2202 VRB02KT

Waarnemingen en weersverwachtingen van meer dan 4000 vliegvelden (METAR en TAF).

De beschikbare stations zijn de gele en rode punten op de kaart.

Ga met uw muis naar het station om de naam te zien.

Klik dan om waarnemingen en weersverwachtingen te zien.

kaart wijzigen: klik op de groene knoppen met een zwart kruis om in te zoomen, op de groene knop met een streepje om uit te zoomen of op de groene pijlen voor aangrenzende kaarten.


METAR-TAF: